x

9444090 - Port Angeles, Wa (ptaw1) Weather Station

8:36pm - Wed 13th Dec 2017 All times are PST. -8 hours from GMT.

  • Wind
    5mph, 7mph gusts
  • Sea Temp 48°f
  • Air Temp 43°f
  • Sea Pressure 1029.7mb
  • 9444090 - Port Angeles, Wa
  • 9444090 - Port Angeles, Wa

More Historic Weather Station data

Upgrade to MSW Pro to gain access to the past 30 days of data for over 8000 Wavebouys and Weather Stations around the globe.

Join

Comparision Forecast

View Surf forecast
   
Wed 12/13 8:36pm 5 7 mph 1029.7mb 48f 43f
8:30pm 5 7 mph 1029.8mb 48f 43f
8:24pm 5 7 mph 1029.9mb 48f 43f
8:18pm 7 8 mph 1029.9mb 48f 43f
8:12pm 6 8 mph 1030mb 48f 42f
8:06pm 7 9 mph 1030mb 48f 42f
8:00pm 6 8 mph 1030mb 48f 42f
7:36pm 8 10 mph 1030.3mb 48f 42f
7:30pm 8 10 mph 1030.4mb 48f 42f
7:24pm 8 9 mph 1030.1mb 48f 42f
7:18pm 7 9 mph 1030mb 48f 42f
7:12pm 8 9 mph 1030mb 48f 42f
7:06pm 7 8 mph 1029.9mb 48f 42f
7:00pm 7 7 mph 1029.9mb 48f 42f
6:36pm 5 7 mph 1029.9mb 48f 42f
6:30pm 6 7 mph 1030mb 48f 43f
6:24pm 7 8 mph 1030.1mb 48f 43f
6:18pm 5 6 mph 1030.1mb 48f 43f
6:12pm 5 6 mph 1030mb 48f 44f
6:06pm 3 8 mph 1030mb 48f 44f
6:00pm 8 9 mph 1030mb 48f 43f
5:36pm 8 9 mph 1029.8mb 48f 43f
5:30pm 6 6 mph 1029.9mb 48f 44f
5:24pm 3 5 mph 1029.9mb 48f 44f
5:18pm 5 6 mph 1030mb 48f 44f
5:12pm 3 6 mph 1030.1mb 48f 44f
5:06pm 3 7 mph 1030.1mb 48f 44f
5:00pm 6 7 mph 1030.2mb 48f 44f
4:36pm 6 8 mph 1030.5mb 48f 45f
4:30pm 5 6 mph 1030.4mb 48f 45f
4:24pm 5 6 mph 1030.5mb 48f 46f
4:18pm 3 6 mph 1030.5mb 48f 46f
4:12pm 6 6 mph 1030.6mb 48f 46f
4:06pm 3 3 mph 1030.5mb 48f 47f
4:00pm 2 2 mph 1030.6mb 48f 47f
3:36pm 3 5 mph 1030.5mb 48f 49f
3:30pm 5 6 mph 1030.5mb 48f 49f
3:24pm 5 6 mph 1030.5mb 48f 49f
3:18pm 6 7 mph 1030.4mb 48f 49f
3:12pm 6 8 mph 1030.3mb 48f 49f
3:06pm 5 6 mph 1030.4mb 48f 49f
3:00pm 5 6 mph 1030.3mb 48f 49f
2:36pm 5 7 mph 1029.9mb 48f 50f
2:30pm 7 8 mph 1029.9mb 48f 50f
2:24pm 6 7 mph 1029.9mb 48f 50f
2:18pm 6 9 mph 1030mb 47f 50f
2:12pm 7 10 mph 1030.1mb 47f 50f
2:06pm 7 9 mph 1030.1mb 47f 50f
2:00pm 7 10 mph 1030.3mb 47f 50f
1:36pm 7 9 mph 1030.3mb 47f 50f
1:30pm 6 7 mph 1030.3mb 47f 49f
1:24pm 6 7 mph 1030.3mb 47f 49f
1:18pm 6 7 mph 1030.2mb 47f 49f
1:12pm 6 7 mph 1030.2mb 47f 49f
1:06pm 5 6 mph 1030.2mb 47f 49f
1:00pm 6 7 mph 1030.2mb 47f 49f
12:36pm 6 6 mph 1030.4mb 47f 48f
12:30pm 5 5 mph 1030.5mb 47f 48f
12:24pm 2 5 mph 1030.5mb 47f 48f
12:18pm 3 5 mph 1030.6mb 47f 49f
12:12pm 5 6 mph 1030.7mb 47f 49f
12:06pm 3 5 mph 1030.8mb 47f 48f
12:00pm 3 3 mph 1031mb 47f 49f
11:36am  -  1 mph 1031.4mb 47f 49f
11:30am 2 2 mph 1031.3mb 47f 52f
11:24am 2 3 mph 1031.4mb 47f 51f
11:18am 3 5 mph 1031.4mb 47f 51f
11:12am 3 6 mph 1031.5mb 47f 51f
11:06am 5 6 mph 1031.6mb 47f 50f
11:00am 3 5 mph 1031.7mb 47f 48f
10:36am  -  2 mph 1031.7mb 47f 46f
10:30am 1 2 mph 1031.7mb 47f 46f
10:24am 2 2 mph 1031.7mb 47f 45f
10:18am  -  3 mph 1031.6mb 47f 46f
10:12am  -  2 mph 1031.5mb 47f 45f
10:06am  -  3 mph 1031.4mb 47f 44f
10:00am 1 2 mph 1031.4mb 47f 44f
9:36am 3 6 mph 1031.3mb 47f 43f
9:30am 2 5 mph 1031.4mb 47f 44f
9:24am 2 5 mph 1031.4mb 47f 44f
9:18am 3 5 mph 1031.7mb 47f 43f
9:12am 5 5 mph 1031.7mb 47f 43f
9:06am 2 3 mph 1031.7mb 47f 44f
9:00am  -  2 mph 1032mb 47f 43f
8:36am 5 5 mph 1031.7mb 47f 40f
8:30am 3 5 mph 1031.7mb 47f 41f
8:24am 3 5 mph 1031.6mb 47f 40f
8:18am 3 5 mph 1031.5mb 47f 40f
8:12am 3 6 mph 1031.4mb 47f 40f
8:06am 5 6 mph 1031.3mb 47f 40f
8:00am 5 7 mph 1031.2mb 47f 40f
7:36am 6 7 mph 1031.1mb 48f 40f
7:30am 5 6 mph 1031.1mb 48f 40f
7:24am 6 7 mph 1031.1mb 48f 41f
7:18am 7 9 mph 1031.1mb 48f 40f
7:12am 6 8 mph 1031mb 48f 40f
7:06am 6 8 mph 1031.1mb 48f 40f
7:00am 6 8 mph 1031.1mb 48f 40f
6:36am 6 8 mph 1031.1mb 48f 38f
6:30am 6 8 mph 1031mb 48f 38f
6:24am 7 9 mph 1031mb 48f 38f
6:18am 6 7 mph 1030.9mb 48f 37f
6:12am 3 5 mph 1031mb 48f 37f
6:06am 3 5 mph 1030.9mb 48f 38f
6:00am 3 5 mph 1030.9mb 48f 38f
5:36am 6 7 mph 1031mb 48f 38f
5:30am 5 7 mph 1031.1mb 48f 38f
5:24am 5 6 mph 1031.1mb 48f 38f
5:18am 5 6 mph 1031.1mb 48f 38f
5:12am 6 6 mph 1031mb 48f 38f
5:06am 5 6 mph 1031mb 48f 38f
5:00am 2 6 mph 1031mb 48f 39f
4:36am 3 5 mph 1030.3mb 47f 39f
4:30am 1 5 mph 1030.3mb 47f 39f
4:24am 5 5 mph 1030.2mb 47f 39f
4:18am 5 6 mph 1030.3mb 47f 39f
4:12am 5 7 mph 1030.1mb 47f 40f
4:06am 5 6 mph 1030.2mb 47f 39f
4:00am 5 6 mph 1030.3mb 47f 39f
3:36am 6 6 mph 1030.5mb 47f 39f
3:30am 6 6 mph 1030.5mb 47f 40f
3:24am 6 8 mph 1030.6mb 47f 40f
3:18am 6 7 mph 1030.5mb 47f 40f
3:12am 5 6 mph 1030.6mb 47f 41f
3:06am 6 7 mph 1030.8mb 47f 41f
3:00am 6 8 mph 1030.9mb 47f 41f
2:36am 2 5 mph 1030.8mb 47f 42f
2:30am 3 5 mph 1030.6mb 47f 43f
2:24am 2 3 mph 1030.6mb 47f 43f
2:18am 3 5 mph 1030.4mb 47f 41f
2:12am 2 3 mph 1030.4mb 47f 42f
2:06am 2 3 mph 1030.3mb 47f 42f
2:00am 3 5 mph 1030.2mb 47f 43f
1:36am 5 7 mph 1030.5mb 47f 44f
1:30am 6 7 mph 1030.7mb 47f 45f
1:24am 2 3 mph 1030.7mb 47f 45f
1:18am 3 5 mph 1030.6mb 47f 46f
1:12am 5 7 mph 1030.4mb 47f 47f
1:06am 6 7 mph 1030.6mb 47f 46f
1:00am 2 5 mph 1030.7mb 47f 45f
12:36am 5 7 mph 1031.1mb 47f 47f
12:30am 6 8 mph 1030.8mb 47f 47f
12:24am 7 8 mph 1030.7mb 47f 46f
12:18am 7 9 mph 1030.9mb 47f 46f
12:12am 7 9 mph 1031.1mb 47f 45f
12:06am 7 10 mph 1031.2mb 47f 44f
12:00am 8 9 mph 1031.2mb 47f 44f
Tue 12/12 11:36pm 5 7 mph 1031.3mb 47f 44f
11:30pm 2 5 mph 1031.3mb 47f 43f
11:24pm 5 6 mph 1031.1mb 47f 43f
11:18pm 2 3 mph 1031.1mb 47f 43f
11:12pm 3 5 mph 1031.1mb 47f 43f
11:06pm 3 5 mph 1031.1mb 47f 43f
11:00pm 3 6 mph 1031.1mb 47f 43f
10:36pm 5 5 mph 1031.3mb 47f 43f
10:30pm 5 7 mph 1031.2mb 47f 43f
10:24pm 5 6 mph 1031.2mb 47f 43f
10:18pm 5 6 mph 1031.4mb 47f 43f
10:12pm 6 6 mph 1031.4mb 47f 43f
10:06pm 5 8 mph 1031.3mb 47f 43f
10:00pm 6 7 mph 1031.3mb 47f 43f
9:54pm 6 7 mph 1031.3mb 47f 43f
9:48pm 6 7 mph 1031.1mb 47f 43f
9:36pm 7 8 mph 1031mb 47f 43f
9:30pm 7 8 mph 1030.9mb 47f 43f
9:24pm 7 8 mph 1030.6mb 47f 42f
9:18pm 6 6 mph 1030.4mb 47f 42f
9:12pm 6 7 mph 1030.3mb 47f 42f
9:06pm 6 8 mph 1030.3mb 47f 42f
9:00pm 6 7 mph 1030.1mb 47f 42f
8:54pm 5 6 mph 1030mb 47f 42f
8:48pm 5 7 mph 1029.9mb 47f 42f
8:36pm 5 6 mph 1029.8mb 47f 42f
8:30pm 5 6 mph 1029.8mb 47f 42f
8:24pm 5 7 mph 1029.8mb 47f 42f
8:18pm 7 8 mph 1029.9mb 47f 42f
8:12pm 7 8 mph 1029.7mb 47f 42f
8:06pm 6 8 mph 1029.7mb 47f 42f
8:00pm 6 7 mph 1029.7mb 47f 42f
7:54pm 6 7 mph 1029.8mb 47f 43f
7:48pm 6 8 mph 1030mb 47f 43f
7:36pm 6 7 mph 1030mb 47f 43f
7:30pm 5 5 mph 1029.8mb 47f 42f
7:24pm 3 6 mph 1029.9mb 47f 43f
7:18pm 6 7 mph 1030mb 47f 43f
7:12pm 3 8 mph 1030mb 47f 43f
7:06pm 6 8 mph 1030.1mb 47f 43f
7:00pm 7 8 mph 1030.1mb 48f 43f
6:54pm 6 7 mph 1030.2mb 48f 43f
6:48pm 6 7 mph 1030.1mb 48f 43f
6:36pm 6 6 mph 1030.3mb 48f 43f
6:30pm 6 6 mph 1030.3mb 48f 44f
6:24pm 6 7 mph 1030.5mb 48f 44f
6:18pm 5 6 mph 1030.4mb 48f 44f
6:12pm 3 5 mph 1030.4mb 48f 44f
6:06pm 5 6 mph 1030.4mb 48f 44f
6:00pm 6 6 mph 1030.4mb 48f 44f
5:54pm 5 6 mph 1030.4mb 48f 44f
5:48pm 5 6 mph 1030.5mb 48f 44f
5:36pm 5 6 mph 1030.7mb 48f 44f
5:30pm 5 6 mph 1030.6mb 48f 44f
5:24pm 5 6 mph 1030.7mb 48f 44f
5:18pm 5 5 mph 1030.7mb 48f 44f
5:12pm 5 6 mph 1030.6mb 48f 44f
5:06pm 5 6 mph 1030.8mb 48f 44f
5:00pm 3 5 mph 1030.7mb 48f 44f
4:54pm 2 3 mph 1030.6mb 48f 44f
4:48pm 2 3 mph 1030.5mb 48f 44f
4:36pm 2 2 mph 1030.5mb 48f 44f
4:30pm 1 2 mph 1030.5mb 48f 45f
4:24pm 1 2 mph 1030.6mb 48f 45f
4:18pm 1 2 mph 1030.5mb 48f 45f
4:12pm 2 3 mph 1030.5mb 48f 46f
4:06pm 2 2 mph 1030.6mb 48f 46f
4:00pm 2 2 mph 1030.5mb 47f 46f
3:54pm 1 2 mph 1030.6mb 48f 46f
3:48pm 2 3 mph 1030.7mb 48f 46f
3:36pm 2 3 mph 1030.6mb 48f 47f
3:30pm 3 5 mph 1030.6mb 47f 47f
3:24pm 5 6 mph 1030.6mb 47f 47f
3:18pm 5 6 mph 1030.6mb 47f 47f
3:12pm 6 7 mph 1030.6mb 47f 47f
3:06pm 6 6 mph 1030.5mb 47f 47f
3:00pm 6 7 mph 1030.5mb 47f 47f
2:54pm 5 6 mph 1030.6mb 47f 47f
2:48pm 6 7 mph 1030.5mb 47f 47f
2:36pm 6 7 mph 1030.4mb 47f 47f
2:30pm 5 7 mph 1030.4mb 47f 47f
2:24pm 6 7 mph 1030.4mb 47f 48f
2:18pm 6 7 mph 1030.4mb 47f 47f
2:12pm 5 6 mph 1030.4mb 47f 48f
2:06pm 3 7 mph 1030.5mb 47f 48f
2:00pm 5 6 mph 1030.4mb 47f 48f
1:54pm 5 6 mph 1030.4mb 47f 48f
1:48pm 6 6 mph 1030.5mb 47f 47f
1:36pm 5 6 mph 1030.8mb 47f 47f
1:30pm 5 6 mph 1030.8mb 47f 48f
1:24pm 5 6 mph 1030.8mb 47f 48f
1:18pm 5 6 mph 1030.9mb 47f 47f
1:12pm 5 6 mph 1031mb 47f 48f
1:06pm 5 6 mph 1031.1mb 47f 47f
1:00pm 5 6 mph 1031.1mb 47f 47f
12:54pm 5 6 mph 1031.2mb 47f 47f
12:48pm 5 6 mph 1031.3mb 47f 48f
12:36pm 5 6 mph 1031.5mb 47f 47f
12:30pm 3 5 mph 1031.6mb 47f 48f
12:24pm 3 5 mph 1031.7mb 47f 47f
12:18pm 5 5 mph 1031.7mb 47f 47f
12:12pm 3 5 mph 1031.9mb 47f 47f
12:06pm 5 5 mph 1032mb 47f 47f
12:00pm 5 6 mph 1032mb 47f 47f
11:54am 3 3 mph 1032.1mb 47f 47f
11:36am 2 3 mph 1032.4mb 47f 50f
11:30am 2 2 mph 1032.5mb 47f 50f
11:24am 2 2 mph 1032.5mb 47f 49f
11:18am 2 2 mph 1032.6mb 47f 48f
11:12am 2 2 mph 1032.6mb 47f 47f
11:06am 1 2 mph 1032.7mb 47f 47f
11:00am  -  1 mph 1032.8mb 47f 47f
10:54am 2 2 mph 1032.7mb 47f 46f
10:48am  -  1 mph 1032.7mb 47f 47f
10:36am  -  0 mph 1032.7mb 47f 46f
10:30am  -  1 mph 1032.7mb 47f 45f
10:24am 2 2 mph 1032.6mb 47f 44f
10:18am 2 2 mph 1032.6mb 47f 44f
10:12am 2 3 mph 1032.6mb 47f 43f
10:06am 2 3 mph 1032.5mb 47f 43f
10:00am 3 3 mph 1032.4mb 47f 42f
9:54am 2 3 mph 1032.5mb 47f 42f
9:48am 3 5 mph 1032.4mb 47f 42f
9:36am 2 5 mph 1032.5mb 47f 42f
9:30am 3 5 mph 1032.5mb 47f 41f
9:24am 3 5 mph 1032.4mb 47f 42f
9:18am 5 5 mph 1032.4mb 47f 41f
9:12am 6 7 mph 1032.3mb 47f 41f
9:06am 5 6 mph 1032.2mb 47f 40f
9:00am 6 6 mph 1032.4mb 47f 40f
8:54am 3 3 mph 1032.3mb 47f 40f
8:48am 3 3 mph 1032.3mb 47f 40f
8:36am 3 3 mph 1032mb 47f 39f
8:30am 3 5 mph 1031.9mb 47f 39f
8:24am 3 3 mph 1031.9mb 47f 39f
8:18am 2 3 mph 1031.8mb 47f 39f
8:12am 2 3 mph 1031.8mb 47f 39f
8:06am 5 6 mph 1031.6mb 47f 39f
8:00am 2 5 mph 1031.4mb 47f 39f
7:54am 5 6 mph 1031.4mb 47f 39f
7:48am 3 3 mph 1031.2mb 47f 39f
7:36am 3 5 mph 1031.3mb 47f 39f
7:30am 3 5 mph 1031.2mb 47f 39f
7:24am 5 6 mph 1031.3mb 47f 40f
7:18am 5 6 mph 1031.3mb 47f 39f
7:12am 6 6 mph 1031.4mb 47f 40f
7:06am 5 6 mph 1031.4mb 47f 40f
7:00am 5 6 mph 1031.5mb 47f 40f
6:54am 5 6 mph 1031.7mb 47f 40f
6:48am 3 5 mph 1031.6mb 47f 40f
6:36am 6 8 mph 1031.4mb 47f 40f
6:30am 6 8 mph 1031.3mb 47f 40f
6:24am 7 8 mph 1031.3mb 47f 40f
6:18am 6 7 mph 1031.3mb 47f 40f
6:12am 6 7 mph 1031.2mb 47f 40f
6:06am 6 7 mph 1031.1mb 47f 40f
6:00am 5 6 mph 1031mb 47f 39f
5:54am 6 6 mph 1030.9mb 47f 39f
5:36am 5 6 mph 1030.9mb 47f 39f
5:30am 3 6 mph 1030.8mb 47f 39f
5:24am 5 6 mph 1030.9mb 47f 38f
5:18am 5 5 mph 1030.8mb 47f 39f
5:12am 3 5 mph 1030.8mb 47f 38f
5:06am 3 5 mph 1030.7mb 47f 38f
5:00am 3 3 mph 1030.8mb 47f 38f
4:54am 3 5 mph 1030.8mb 47f 39f
4:36am 6 6 mph 1030.8mb 47f 39f
4:30am 3 5 mph 1030.6mb 47f 38f
4:24am 3 3 mph 1030.7mb 47f 39f
4:18am 3 5 mph 1030.7mb 47f 39f
4:12am 3 3 mph 1030.6mb 47f 39f
4:06am 3 5 mph 1030.5mb 47f 39f
4:00am 3 7 mph 1030.7mb 47f 40f
3:54am 6 7 mph 1030.8mb 47f 39f
3:48am 6 7 mph 1030.7mb 47f 40f
3:36am 7 8 mph 1030.9mb 47f 39f
3:30am 6 7 mph 1031mb 47f 40f
3:24am 7 7 mph 1031mb 47f 39f
3:18am 6 7 mph 1031.2mb 48f 39f
3:12am 6 7 mph 1031.3mb 48f 39f
3:06am 6 7 mph 1031.3mb 48f 39f
3:00am 3 5 mph 1031.3mb 48f 39f
2:54am 3 6 mph 1031.2mb 48f 39f
2:48am 6 7 mph 1031.2mb 48f 39f
2:36am 5 8 mph 1031.3mb 48f 39f
2:30am 6 8 mph 1031.4mb 48f 39f
2:24am 8 8 mph 1031.4mb 48f 38f
2:18am 6 8 mph 1031.4mb 48f 38f
2:12am 7 8 mph 1031.4mb 48f 38f
2:06am 6 7 mph 1031.3mb 48f 38f
2:00am 5 6 mph 1031.2mb 48f 38f
1:54am 5 6 mph 1031.1mb 48f 38f
1:48am 6 7 mph 1031.1mb 48f 38f
1:36am 6 8 mph 1031mb 48f 37f
1:30am 7 8 mph 1031mb 48f 37f
1:24am 6 8 mph 1031mb 48f 37f
1:18am 6 8 mph 1030.9mb 48f 37f
1:12am 6 8 mph 1030.9mb 48f 37f
1:06am 7 9 mph 1030.9mb 48f 37f
1:00am 7 9 mph 1030.9mb 48f 37f
12:54am 5 6 mph 1030.9mb 48f 37f
12:48am 5 6 mph 1030.9mb 48f 37f
12:36am 6 7 mph 1030.8mb 48f 38f
12:30am 7 8 mph 1030.8mb 48f 38f
12:24am 7 8 mph 1030.7mb 48f 38f
12:18am 6 6 mph 1030.7mb 48f 38f
12:12am 5 6 mph 1030.7mb 48f 38f
12:06am 5 5 mph 1030.8mb 48f 38f
12:00am 5 7 mph 1030.7mb 48f 38f
Mon 12/11 11:54pm 7 8 mph 1030.7mb 48f 38f
11:36pm 3 6 mph 1030.7mb 48f 38f
11:30pm 5 7 mph 1030.5mb 48f 38f
11:24pm 6 7 mph 1030.3mb 48f 37f
11:18pm 5 6 mph 1030.2mb 48f 39f
11:12pm 5 6 mph 1030.2mb 48f 38f
11:06pm 1 2 mph 1029.9mb 48f 37f
11:00pm 2 5 mph 1029.6mb 48f 36f
10:54pm 5 7 mph 1029.5mb 48f 36f
10:48pm 5 6 mph 1029.3mb 48f 36f
10:36pm 5 6 mph 1029.6mb 48f 35f
10:30pm 5 7 mph 1029.6mb 48f 36f
10:24pm 6 8 mph 1029.6mb 48f 35f
10:18pm 3 6 mph 1029.5mb 48f 35f
10:12pm 6 7 mph 1029.4mb 48f 35f
10:06pm 5 5 mph 1029.4mb 48f 35f
10:00pm 2 5 mph 1029.3mb 48f 36f
9:54pm 2 5 mph 1029mb 48f 35f
9:48pm 2 5 mph 1028.7mb 48f 35f
9:36pm 6 7 mph 1028.7mb 48f 35f
9:30pm 5 6 mph 1028.6mb 48f 34f
9:24pm 6 7 mph 1028.9mb 48f 35f
9:18pm 5 7 mph 1029mb 48f 35f
9:12pm 6 7 mph 1029.2mb 48f 35f
9:06pm 7 9 mph 1029.2mb 48f 35f
9:00pm 6 8 mph 1029mb 48f 35f
8:54pm 5 7 mph 1028.9mb 48f 35f
8:36pm 5 7 mph 1028.8mb 48f 35f
8:30pm 5 7 mph 1028.8mb 48f 35f
8:24pm 6 8 mph 1028.8mb 48f 35f
8:18pm 7 8 mph 1028.8mb 48f 35f
8:12pm 7 8 mph 1028.7mb 48f 35f
8:06pm 7 8 mph 1028.8mb 48f 35f
8:00pm 7 8 mph 1028.8mb 48f 35f
7:54pm 7 8 mph 1028.8mb 48f 35f
7:48pm 6 7 mph 1028.8mb 48f 36f
7:36pm 5 7 mph 1028.7mb 47f 36f
7:30pm 7 10 mph 1029mb 47f 36f
7:24pm 8 10 mph 1029.1mb 47f 36f
7:18pm 6 9 mph 1028.9mb 47f 36f
7:12pm 6 8 mph 1028.9mb 47f 37f
7:06pm 6 8 mph 1028.8mb 47f 37f
7:00pm 7 9 mph 1028.7mb 47f 37f
6:54pm 6 7 mph 1028.5mb 47f 37f
6:48pm 6 9 mph 1028.6mb 47f 37f
6:36pm 6 7 mph 1028.3mb 47f 37f
6:30pm 3 6 mph 1028.1mb 48f 36f
6:24pm 3 5 mph 1028mb 47f 37f
6:18pm 3 7 mph 1027.7mb 47f 37f
6:12pm 6 7 mph 1027.7mb 47f 36f
6:06pm 5 6 mph 1027.6mb 48f 37f
6:00pm 5 6 mph 1027.6mb 48f 36f
5:54pm 3 7 mph 1027.7mb 48f 37f
5:48pm 5 6 mph 1027.7mb 48f 37f
5:36pm 6 7 mph 1027.8mb 48f 37f
5:30pm 5 6 mph 1027.8mb 48f 37f
5:24pm 5 8 mph 1027.9mb 48f 38f
5:18pm 3 5 mph 1027.9mb 48f 38f
5:12pm 5 7 mph 1028mb 48f 38f
5:06pm 6 7 mph 1028.1mb 48f 38f
5:00pm 3 6 mph 1028.1mb 48f 39f
4:54pm 6 7 mph 1028.3mb 48f 39f
4:48pm 3 6 mph 1028.1mb 48f 40f
4:36pm 2 3 mph 1028.2mb 48f 41f
4:30pm  -  2 mph 1028.1mb 48f 41f
4:24pm 1 2 mph 1028.2mb 48f 41f
4:18pm 1 2 mph 1028mb 48f 42f
4:12pm 2 3 mph 1027.9mb 48f 42f
4:06pm 1 2 mph 1027.8mb 48f 43f
4:00pm  -  2 mph 1027.7mb 48f 44f
3:54pm 2 3 mph 1027.7mb 48f 44f
3:48pm 2 3 mph 1027.5mb 48f 45f
3:36pm 3 6 mph 1027.1mb 48f 45f
3:30pm 3 6 mph 1027.2mb 48f 45f
3:24pm 5 7 mph 1027.1mb 48f 45f
3:18pm 3 6 mph 1027.2mb 48f 46f
3:12pm 3 5 mph 1027.1mb 48f 46f
3:06pm 1 5 mph 1027.1mb 48f 47f
3:00pm 3 5 mph 1027.2mb 48f 46f
2:36pm 3 7 mph 1027.7mb 47f 44f
2:30pm 2 6 mph 1027.8mb 47f 45f
2:24pm 2 3 mph 1027.7mb 47f 45f
2:18pm 1 3 mph 1027.6mb 47f 45f
2:12pm  -  2 mph 1027.3mb 47f 45f
2:06pm 3 7 mph 1027.7mb 47f 44f
2:00pm 6 9 mph 1027.9mb 47f 44f
1:54pm 7 10 mph 1028mb 47f 44f
1:36pm 2 6 mph 1027mb 47f 43f
1:30pm 5 6 mph 1027.2mb 47f 43f
1:24pm 3 5 mph 1027.3mb 47f 43f
1:18pm 3 6 mph 1027.4mb 47f 43f
1:12pm 5 6 mph 1027.5mb 47f 43f
1:06pm 5 7 mph 1027.4mb 47f 43f
1:00pm 5 7 mph 1027.4mb 47f 42f
12:54pm 6 8 mph 1027.2mb 47f 42f
12:48pm 5 6 mph 1027.2mb 47f 43f
12:36pm 5 6 mph 1027.2mb 47f 43f
12:30pm 5 7 mph 1027.1mb 47f 43f
12:24pm 5 8 mph 1027.1mb 47f 44f
12:18pm 6 8 mph 1027.1mb 47f 44f
12:12pm 6 8 mph 1027.2mb 47f 44f
12:06pm 6 8 mph 1027.3mb 47f 43f
12:00pm 7 9 mph 1027.4mb 47f 43f
11:54am 6 8 mph 1027.4mb 47f 43f
11:36am 2 5 mph 1027.2mb 47f 43f
11:30am 3 5 mph 1027.2mb 47f 42f
11:24am 3 5 mph 1027.1mb 47f 43f
11:18am 3 6 mph 1027.2mb 47f 43f
11:12am 5 7 mph 1027.2mb 47f 42f
11:06am 5 8 mph 1027.2mb 47f 42f
11:00am 5 8 mph 1027mb 47f 42f
10:54am 6 7 mph 1027.1mb 47f 42f
10:48am 6 9 mph 1027.3mb 47f 42f
10:36am 5 6 mph 1027.3mb 47f 42f
10:30am 3 6 mph 1027.2mb 47f 42f
10:24am 2 3 mph 1027.2mb 47f 41f
10:18am 3 7 mph 1027.2mb 47f 42f
10:12am 2 6 mph 1027.2mb 47f 40f
10:06am 2 5 mph 1027.1mb 47f 39f
10:00am 3 5 mph 1027.1mb 47f 38f
9:54am 2 6 mph 1027.1mb 47f 38f
9:36am 3 6 mph 1027mb 47f 37f
9:30am 5 7 mph 1027mb 47f 38f
9:24am 6 8 mph 1026.9mb 47f 38f
9:18am 7 9 mph 1026.8mb 47f 38f
9:12am 8 9 mph 1026.8mb 47f 37f
9:06am 8 9 mph 1026.7mb 47f 36f
9:00am 8 10 mph 1026.7mb 47f 36f
8:54am 9 10 mph 1026.7mb 47f 35f
8:48am 9 10 mph 1026.6mb 47f 35f
8:36am 9 10 mph 1026.7mb 47f 34f
8:30am 9 10 mph 1026.8mb 47f 34f
8:24am 8 10 mph 1027mb 47f 33f
8:18am 7 9 mph 1027mb 47f 34f
8:12am 6 9 mph 1027.1mb 47f 33f
8:06am 7 8 mph 1027.1mb 47f 33f
8:00am 6 7 mph 1027mb 47f 33f
7:54am 6 7 mph 1026.9mb 47f 33f
7:48am 7 7 mph 1026.9mb 47f 33f
7:36am 5 6 mph 1026.8mb 47f 33f
7:30am 5 6 mph 1026.8mb 47f 33f
7:24am 5 6 mph 1026.7mb 47f 33f
7:18am 5 6 mph 1026.6mb 47f 33f
7:12am 3 5 mph 1026.6mb 47f 33f
7:06am 3 5 mph 1026.6mb 47f 33f
7:00am 3 5 mph 1026.6mb 47f 33f
6:54am 3 5 mph 1026.6mb 47f 33f
6:48am 5 5 mph 1026.7mb 47f 33f
6:36am 3 5 mph 1026.7mb 47f 33f
6:30am 3 6 mph 1026.8mb 47f 33f
6:24am 3 5 mph 1026.8mb 47f 33f
6:18am 5 6 mph 1026.8mb 47f 33f
6:12am 6 7 mph 1026.7mb 47f 33f
6:06am 5 6 mph 1026.7mb 47f 33f
6:00am 5 5 mph 1026.7mb 47f 33f
5:54am 3 5 mph 1026.7mb 47f 33f
5:48am 3 6 mph 1026.7mb 48f 33f
5:36am 5 6 mph 1026.6mb 47f 33f
5:30am 6 6 mph 1026.6mb 47f 33f
5:24am 6 8 mph 1026.7mb 47f 33f
5:18am 7 8 mph 1026.7mb 47f 33f
5:12am 6 6 mph 1026.7mb 47f 33f
5:06am 6 8 mph 1026.8mb 48f 33f
5:00am 6 7 mph 1026.8mb 48f 33f
4:54am 5 6 mph 1026.8mb 48f 33f
4:48am 3 5 mph 1026.8mb 48f 33f
4:36am 3 3 mph 1026.7mb 47f 33f
4:30am 2 5 mph 1026.7mb 47f 33f
4:24am 3 5 mph 1026.7mb 47f 33f
4:18am 5 5 mph 1026.7mb 47f 33f
4:12am 5 6 mph 1026.7mb 48f 33f
4:06am 3 5 mph 1026.8mb 48f 33f
4:00am 5 6 mph 1026.8mb 48f 33f
3:54am 5 6 mph 1026.9mb 48f 33f
3:48am 5 6 mph 1026.9mb 48f 33f
3:36am 5 6 mph 1027mb 48f 34f
3:30am 5 7 mph 1027mb 48f 35f
3:24am 6 7 mph 1027mb 48f 34f
3:18am 6 7 mph 1027.1mb 48f 35f
3:12am 6 7 mph 1027.1mb 48f 35f
3:06am 6 7 mph 1027.1mb 48f 35f
3:00am 7 9 mph 1027.1mb 48f 35f
2:54am 8 8 mph 1027mb 48f 34f
2:48am 7 8 mph 1027mb 48f 34f
2:36am 5 7 mph 1027mb 48f 34f
2:30am 7 8 mph 1027mb 48f 34f
2:24am 6 7 mph 1026.9mb 48f 34f
2:18am 7 7 mph 1026.8mb 48f 34f
2:12am 5 6 mph 1026.7mb 48f 34f
2:06am 6 7 mph 1026.8mb 48f 34f
2:00am 6 6 mph 1026.8mb 48f 34f
1:54am 5 6 mph 1026.8mb 48f 34f
1:36am 5 7 mph 1026.9mb 48f 35f
1:30am 6 7 mph 1027mb 48f 35f
1:24am 5 6 mph 1026.9mb 48f 35f
1:18am 3 6 mph 1026.9mb 48f 34f
1:12am 6 6 mph 1027mb 48f 34f
1:06am 5 6 mph 1026.9mb 48f 34f
1:00am 5 6 mph 1027mb 48f 35f
12:54am 6 7 mph 1027mb 48f 35f
12:48am 6 6 mph 1027mb 48f 36f
12:36am 7 9 mph 1027mb 48f 36f
12:30am 6 8 mph 1027mb 48f 35f
12:24am 6 7 mph 1027mb 48f 35f
12:18am 6 7 mph 1027.1mb 48f 35f
12:12am 5 6 mph 1027.2mb 48f 35f
12:06am 5 6 mph 1027.2mb 48f 35f
12:00am 5 6 mph 1027.3mb 48f 35f
Sun 12/10 11:54pm 5 6 mph 1027.3mb 48f 35f
11:48pm 5 6 mph 1027.3mb 48f 35f
11:36pm 5 6 mph 1027.3mb 48f 35f
11:30pm 5 6 mph 1027.3mb 48f 35f
11:24pm 5 6 mph 1027.3mb 48f 35f
11:18pm 5 6 mph 1027.2mb 48f 35f
11:12pm 5 6 mph 1027.2mb 48f 36f
11:06pm 5 6 mph 1027.2mb 48f 36f
11:00pm 5 6 mph 1027.2mb 48f 35f
10:54pm 5 6 mph 1027.1mb 48f 36f
10:36pm 5 6 mph 1027.1mb 48f 35f
10:30pm 5 6 mph 1027.1mb 48f 35f
10:24pm 5 6 mph 1027.1mb 48f 35f
10:18pm 5 6 mph 1027.2mb 48f 35f
10:12pm 5 7 mph 1027.2mb 48f 35f
10:06pm 5 6 mph 1027.2mb 48f 35f
10:00pm 3 6 mph 1027.3mb 48f 35f
9:54pm 3 5 mph 1027.3mb 48f 35f
9:48pm 3 5 mph 1027.3mb 48f 36f
9:36pm 5 6 mph 1027.2mb 48f 36f
9:30pm 5 5 mph 1027.3mb 48f 36f
9:24pm 5 6 mph 1027.2mb 48f 36f
9:18pm 3 5 mph 1027.3mb 48f 36f
9:12pm 3 5 mph 1027.3mb 48f 36f
9:06pm 3 5 mph 1027.3mb 48f 36f
9:00pm 3 6 mph 1027.3mb 48f 36f
8:54pm 5 7 mph 1027.2mb 48f 36f
8:48pm 5 6 mph 1027.2mb 48f 36f
8:36pm 3 6 mph 1027.3mb 48f 37f
8:30pm 5 6 mph 1027.3mb 48f 37f
8:24pm 6 7 mph 1027.4mb 48f 37f
8:18pm 6 6 mph 1027.4mb 48f 37f
8:12pm 6 6 mph 1027.4mb 48f 38f
8:06pm 6 6 mph 1027.4mb 48f 38f
8:00pm 5 7 mph 1027.3mb 48f 38f
7:54pm 6 9 mph 1027.3mb 48f 38f
7:48pm 7 8 mph 1027.2mb 48f 39f
7:36pm 6 9 mph 1027.2mb 48f 39f
7:30pm 6 8 mph 1027.2mb 48f 39f
7:24pm 6 8 mph 1027.2mb 48f 39f
7:18pm 6 7 mph 1027.3mb 48f 39f
7:12pm 7 8 mph 1027.3mb 48f 39f
7:06pm 8 10 mph 1027.3mb 48f 39f
7:00pm 8 10 mph 1027.3mb 48f 40f
6:54pm 8 9 mph 1027.3mb 48f 40f
6:48pm 7 10 mph 1027.4mb 48f 39f
6:36pm 6 8 mph 1027.4mb 48f 39f
6:30pm 6 8 mph 1027.5mb 48f 39f
6:24pm 6 8 mph 1027.5mb 48f 39f
6:18pm 6 7 mph 1027.6mb 48f 39f
6:12pm 6 7 mph 1027.6mb 48f 39f
6:06pm 5 6 mph 1027.7mb 48f 39f
6:00pm 5 6 mph 1027.8mb 48f 39f
5:54pm 5 6 mph 1027.9mb 48f 39f
5:48pm 3 5 mph 1028mb 48f 39f
5:36pm 3 5 mph 1028.1mb 48f 39f
5:30pm 3 5 mph 1028.1mb 48f 39f
5:24pm 3 5 mph 1028.2mb 48f 40f
5:18pm 3 5 mph 1028.2mb 48f 40f
5:12pm 2 5 mph 1028.2mb 48f 40f
5:06pm 3 6 mph 1028.2mb 48f 41f
5:00pm 5 6 mph 1028.3mb 48f 41f
4:54pm 3 5 mph 1028.4mb 48f 41f
4:36pm 2 3 mph 1028.5mb 47f 42f
4:30pm 2 3 mph 1028.5mb 47f 42f
4:24pm 3 3 mph 1028.5mb 47f 43f
4:18pm 3 5 mph 1028.5mb 47f 43f
4:12pm 3 5 mph 1028.6mb 47f 44f
4:06pm 5 6 mph 1028.6mb 47f 45f
4:00pm 3 5 mph 1028.7mb 47f 46f
3:54pm 3 5 mph 1028.8mb 47f 46f
3:36pm 5 6 mph 1028.8mb 47f 46f
3:30pm 5 7 mph 1028.7mb 47f 47f
3:24pm 5 7 mph 1028.7mb 47f 47f
3:18pm 5 6 mph 1028.7mb 47f 47f
3:12pm 3 6 mph 1028.7mb 47f 47f
3:06pm 5 7 mph 1028.6mb 47f 47f
3:00pm 6 7 mph 1028.7mb 47f 47f
2:54pm 5 7 mph 1028.7mb 47f 47f
2:48pm 3 6 mph 1028.6mb 47f 47f
2:36pm 3 6 mph 1028.6mb 47f 47f
2:30pm 6 6 mph 1028.6mb 47f 47f
2:24pm 3 7 mph 1028.6mb 47f 48f
2:18pm 5 7 mph 1028.7mb 47f 47f
2:12pm 6 7 mph 1028.7mb 47f 47f
2:06pm 5 6 mph 1028.7mb 47f 47f
2:00pm 6 7 mph 1028.7mb 47f 47f
1:54pm 6 8 mph 1028.7mb 47f 47f
1:48pm 6 8 mph 1028.8mb 47f 47f
1:36pm 7 9 mph 1029mb 47f 47f
1:30pm 7 8 mph 1029.2mb 47f 47f
1:24pm 7 9 mph 1029.3mb 47f 47f
1:18pm 8 9 mph 1029.5mb 47f 47f
1:12pm 6 8 mph 1029.6mb 47f 47f
1:06pm 6 8 mph 1029.7mb 47f 47f
1:00pm 7 8 mph 1029.8mb 47f 47f
12:54pm 6 8 mph 1029.8mb 47f 47f
12:48pm 7 8 mph 1029.9mb 47f 47f
12:36pm 8 9 mph 1030mb 47f 47f
12:30pm 7 9 mph 1030.1mb 47f 47f
12:24pm 7 8 mph 1030.2mb 47f 47f
12:18pm 8 9 mph 1030.2mb 47f 47f
12:12pm 7 9 mph 1030.3mb 47f 47f
12:06pm 8 9 mph 1030.3mb 47f 47f
12:00pm 8 9 mph 1030.4mb 47f 47f
11:54am 8 9 mph 1030.6mb 47f 47f
11:48am 8 10 mph 1030.7mb 47f 47f
11:36am 9 9 mph 1030.7mb 47f 47f
11:30am 8 10 mph 1030.8mb 47f 47f
11:24am 7 9 mph 1030.8mb 47f 47f
11:18am 8 9 mph 1030.9mb 47f 47f
11:12am 6 9 mph 1030.9mb 47f 47f
11:06am 7 9 mph 1030.9mb 47f 47f
11:00am 7 8 mph 1031mb 47f 47f
10:54am 6 7 mph 1031.1mb 47f 47f
10:48am 7 8 mph 1031mb 47f 47f
10:36am 7 8 mph 1031mb 47f 46f
10:30am 7 8 mph 1030.9mb 47f 46f
10:24am 7 8 mph 1031mb 47f 46f
10:18am 6 7 mph 1030.9mb 47f 46f
10:12am 5 6 mph 1030.9mb 47f 46f
10:06am 5 7 mph 1030.8mb 47f 46f
10:00am 5 6 mph 1030.8mb 47f 45f
9:54am 5 6 mph 1030.8mb 47f 45f
9:48am 5 6 mph 1030.8mb 47f 44f
9:36am 3 5 mph 1030.8mb 47f 43f
9:30am 3 5 mph 1030.9mb 47f 43f
9:24am 2 3 mph 1030.9mb 47f 42f
9:18am 2 5 mph 1030.9mb 47f 42f
9:12am 2 3 mph 1030.8mb 47f 42f
9:06am 3 3 mph 1030.8mb 47f 41f
9:00am 3 3 mph 1030.8mb 47f 41f
8:54am 3 5 mph 1030.8mb 47f 40f
8:48am 2 3 mph 1030.7mb 47f 40f
8:36am 3 3 mph 1030.7mb 47f 39f
8:30am 3 5 mph 1030.6mb 48f 39f
8:24am 3 5 mph 1030.7mb 48f 39f
8:18am 2 3 mph 1030.7mb 48f 39f
8:12am 3 3 mph 1030.6mb 48f 39f
8:06am 2 3 mph 1030.7mb 48f 39f
8:00am 2 3 mph 1030.7mb 48f 39f
7:54am 3 3 mph 1030.7mb 48f 39f
7:48am 2 3 mph 1030.8mb 48f 39f
7:36am 3 6 mph 1030.9mb 48f 39f
7:30am 3 5 mph 1030.9mb 48f 39f
7:24am 3 6 mph 1030.9mb 48f 38f
7:18am 5 5 mph 1031mb 47f 38f
7:12am 5 6 mph 1031mb 47f 38f
7:06am 5 6 mph 1031.1mb 47f 38f
7:00am 5 6 mph 1031.2mb 47f 38f
6:54am 5 6 mph 1031.3mb 47f 37f
6:36am 3 5 mph 1031.4mb 47f 38f
6:30am 5 6 mph 1031.4mb 47f 37f
6:24am 3 5 mph 1031.4mb 47f 38f
6:18am 2 3 mph 1031.3mb 47f 38f
6:12am 2 5 mph 1031.3mb 47f 38f